createdAt,value
2022-09-03T00:01:05.555Z,1.00
2022-09-03T00:02:15.189Z,1.42
2022-09-03T00:03:29.524Z,1.30
2022-09-03T00:04:53.287Z,1.10
2022-09-03T00:06:17.678Z,1.33
2022-09-03T00:07:35.736Z,1.10
2022-09-03T00:09:09.254Z,1.27
2022-09-03T00:10:16.274Z,1.65
2022-09-03T00:11:56.241Z,1.13
2022-09-03T00:13:02.858Z,1.02
2022-09-03T00:14:06.694Z,1.48
2022-09-03T00:15:27.556Z,1.35
2022-09-03T00:17:58.729Z,1.25
2022-09-03T00:19:03.624Z,1.17
2022-09-03T00:20:13.780Z,1.60
2022-09-03T00:21:19.331Z,1.40
2022-09-03T00:22:32.417Z,1.30
2022-09-03T00:23:41.839Z,1.40
2022-09-03T00:24:45.908Z,1.30
2022-09-03T00:25:59.998Z,1.85
2022-09-03T00:27:06.811Z,1.80
2022-09-03T00:28:18.856Z,2.08
2022-09-03T00:29:55.345Z,1.75
2022-09-03T00:31:11.169Z,1.58
2022-09-03T00:32:18.786Z,1.58
2022-09-03T00:33:24.909Z,1.45
2022-09-03T00:34:34.746Z,2.13
2022-09-03T00:36:03.600Z,1.47
2022-09-03T00:37:08.524Z,1.63
2022-09-03T00:38:17.241Z,1.55
2022-09-03T00:39:22.237Z,1.45
2022-09-03T00:40:58.760Z,1.35
2022-09-03T00:42:08.052Z,1.10
2022-09-03T00:43:32.861Z,1.60
2022-09-03T00:44:50.104Z,1.73
2022-09-03T00:45:58.547Z,1.52
2022-09-03T00:47:13.925Z,1.33
2022-09-03T00:48:28.438Z,1.52
2022-09-03T00:50:09.344Z,1.95
2022-09-03T00:51:32.754Z,1.38
2022-09-03T00:52:41.813Z,1.40
2022-09-03T00:53:52.544Z,1.95
2022-09-03T00:55:10.758Z,1.35
2022-09-03T00:56:25.137Z,1.33
2022-09-03T00:57:33.446Z,1.42
2022-09-03T00:58:55.865Z,1.60
2022-09-03T01:00:09.419Z,1.60
2022-09-03T01:01:47.943Z,1.48
2022-09-03T01:03:08.320Z,1.30
2022-09-03T01:04:35.623Z,1.52
2022-09-03T01:05:41.277Z,1.30
2022-09-03T01:06:59.020Z,1.55
2022-09-03T01:08:21.167Z,1.60
2022-09-03T01:09:33.414Z,1.40
2022-09-03T01:10:57.468Z,1.15
2022-09-03T01:12:13.778Z,1.20
2022-09-03T01:13:18.129Z,1.42
2022-09-03T01:14:40.293Z,1.55
2022-09-03T01:16:10.929Z,1.55
2022-09-03T01:17:21.255Z,1.75
2022-09-03T01:18:41.823Z,1.75
2022-09-03T01:20:26.780Z,1.75
2022-09-03T01:21:43.726Z,1.25
2022-09-03T01:23:17.217Z,1.30
2022-09-03T01:24:40.230Z,1.40
2022-09-03T01:26:07.371Z,1.75
2022-09-03T01:27:22.133Z,1.48
2022-09-03T01:28:56.638Z,1.52
2022-09-03T01:30:06.231Z,1.30
2022-09-03T01:31:12.948Z,1.85
2022-09-03T01:32:42.446Z,1.73
2022-09-03T01:33:53.018Z,1.52
2022-09-03T01:36:12.882Z,1.50
2022-09-03T01:37:47.824Z,1.85
2022-09-03T01:39:02.064Z,1.58
2022-09-03T01:40:14.061Z,1.67
2022-09-03T01:41:44.473Z,1.75
2022-09-03T01:43:12.815Z,0.95
2022-09-03T01:44:40.524Z,1.45
2022-09-03T01:45:59.808Z,1.97
2022-09-03T01:47:34.232Z,1.30
2022-09-03T01:49:00.947Z,1.23
2022-09-03T01:50:22.395Z,1.30
2022-09-03T01:51:28.571Z,1.67
2022-09-03T01:53:05.959Z,1.88
2022-09-03T01:54:20.893Z,1.58
2022-09-03T01:55:36.958Z,1.35
2022-09-03T01:57:35.560Z,1.40
2022-09-03T01:59:02.870Z,1.30
2022-09-03T02:00:13.927Z,1.58
2022-09-03T02:01:44.108Z,1.13
2022-09-03T02:02:51.161Z,1.37
2022-09-03T02:03:59.650Z,1.13
2022-09-03T02:05:09.291Z,1.58
2022-09-03T02:06:12.652Z,1.60
2022-09-03T02:07:15.247Z,1.23
2022-09-03T02:08:17.994Z,1.40
2022-09-03T02:09:21.243Z,1.42
2022-09-03T02:10:32.415Z,1.27
2022-09-03T02:11:34.938Z,1.48
2022-09-03T02:12:38.567Z,1.45
2022-09-03T02:13:48.865Z,1.42
2022-09-03T02:14:51.581Z,1.80
2022-09-03T02:15:57.552Z,1.65
2022-09-03T02:17:01.475Z,2.03
2022-09-03T02:18:07.903Z,1.70
2022-09-03T02:19:13.357Z,1.50
2022-09-03T02:20:24.475Z,1.70
2022-09-03T02:21:29.822Z,1.38
2022-09-03T02:22:33.348Z,1.77
2022-09-03T02:23:35.935Z,2.00
2022-09-03T02:24:38.534Z,2.10
2022-09-03T02:25:45.758Z,2.13
2022-09-03T02:26:50.809Z,2.33
2022-09-03T02:27:53.698Z,1.95
2022-09-03T02:28:57.008Z,2.00
2022-09-03T02:29:59.885Z,2.53
2022-09-03T02:31:03.002Z,2.20
2022-09-03T02:32:06.010Z,1.63
2022-09-03T02:33:08.673Z,1.63
2022-09-03T02:34:11.559Z,2.05
2022-09-03T02:35:14.304Z,1.83
2022-09-03T02:36:27.502Z,1.95
2022-09-03T02:37:30.360Z,2.05
2022-09-03T02:38:33.216Z,1.80
2022-09-03T02:39:39.396Z,2.20
2022-09-03T02:40:41.995Z,1.98
2022-09-03T02:41:45.049Z,1.80
2022-09-03T02:42:48.076Z,1.73
2022-09-03T02:43:52.826Z,1.92
2022-09-03T02:45:10.313Z,2.17
2022-09-03T02:46:23.740Z,1.85
2022-09-03T02:47:31.363Z,2.05
2022-09-03T02:48:34.100Z,1.67
2022-09-03T02:49:36.923Z,1.80
2022-09-03T02:50:43.282Z,1.98
2022-09-03T02:51:46.278Z,1.90
2022-09-03T02:52:48.946Z,1.73
2022-09-03T02:53:51.905Z,1.55
2022-09-03T02:54:54.442Z,1.42
2022-09-03T02:56:00.704Z,1.50
2022-09-03T02:57:03.721Z,1.83
2022-09-03T02:58:06.948Z,1.35
2022-09-03T02:59:09.901Z,1.48
2022-09-03T03:00:13.135Z,1.63
2022-09-03T03:01:23.839Z,1.65
2022-09-03T03:02:26.972Z,1.45
2022-09-03T03:03:29.796Z,1.30
2022-09-03T03:04:33.073Z,1.25
2022-09-03T03:05:47.153Z,1.52
2022-09-03T03:06:51.007Z,1.42
2022-09-03T03:07:53.631Z,1.50
2022-09-03T03:08:57.218Z,1.33
2022-09-03T03:09:59.954Z,1.50
2022-09-03T03:11:02.735Z,1.48
2022-09-03T03:12:05.503Z,1.38
2022-09-03T03:13:08.059Z,1.50
2022-09-03T03:14:11.068Z,1.35
2022-09-03T03:15:13.694Z,1.83
2022-09-03T03:16:17.023Z,1.60
2022-09-03T03:17:19.613Z,1.92
2022-09-03T03:18:22.189Z,1.63
2022-09-03T03:19:25.118Z,1.20
2022-09-03T03:20:27.780Z,1.50
2022-09-03T03:21:30.954Z,1.80
2022-09-03T03:22:33.632Z,1.30
2022-09-03T03:23:36.961Z,1.42
2022-09-03T03:24:39.536Z,1.27
2022-09-03T03:25:42.068Z,1.27
2022-09-03T03:26:45.048Z,1.75
2022-09-03T03:27:47.911Z,1.27
2022-09-03T03:28:56.887Z,1.48
2022-09-03T03:29:59.466Z,1.35
2022-09-03T03:31:13.877Z,2.00
2022-09-03T03:32:16.483Z,1.20
2022-09-03T03:33:19.168Z,1.83
2022-09-03T03:34:22.250Z,1.63
2022-09-03T03:35:24.960Z,1.27
2022-09-03T03:36:30.485Z,1.38
2022-09-03T03:37:35.700Z,1.38
2022-09-03T03:38:38.564Z,1.67
2022-09-03T03:39:41.473Z,1.50
2022-09-03T03:40:44.288Z,1.27
2022-09-03T03:41:47.344Z,1.38
2022-09-03T03:42:50.295Z,1.27
2022-09-03T03:43:57.329Z,1.60
2022-09-03T03:45:00.310Z,1.67
2022-09-03T03:46:03.020Z,1.65
2022-09-03T03:47:06.129Z,1.17
2022-09-03T03:48:08.619Z,1.80
2022-09-03T03:49:11.801Z,1.50
2022-09-03T03:50:14.369Z,1.38
2022-09-03T03:51:17.585Z,1.75
2022-09-03T03:52:20.209Z,1.58
2022-09-03T03:53:22.841Z,1.02
2022-09-03T03:54:25.763Z,1.50
2022-09-03T03:55:28.251Z,1.30
2022-09-03T03:56:34.859Z,1.30
2022-09-03T03:57:37.504Z,1.58
2022-09-03T03:58:44.369Z,1.77
2022-09-03T03:59:47.955Z,1.55
2022-09-03T04:00:51.815Z,1.42
2022-09-03T04:01:57.091Z,1.58
2022-09-03T04:02:59.817Z,1.25
2022-09-03T04:04:02.681Z,1.55
2022-09-03T04:05:05.855Z,1.60
2022-09-03T04:06:12.573Z,1.30
2022-09-03T04:07:15.217Z,1.40
2022-09-03T04:08:17.719Z,1.30
2022-09-03T04:09:20.441Z,1.38
2022-09-03T04:10:23.407Z,1.30
2022-09-03T04:11:26.861Z,1.55
2022-09-03T04:12:29.772Z,1.00
2022-09-03T04:13:37.357Z,1.00
2022-09-03T04:14:40.065Z,1.30
2022-09-03T04:15:42.893Z,1.30
2022-09-03T04:16:47.122Z,2.00
2022-09-03T04:17:49.850Z,1.40
2022-09-03T04:18:53.665Z,1.15
2022-09-03T04:19:56.522Z,1.45
2022-09-03T04:21:04.392Z,1.90
2022-09-03T04:22:06.880Z,1.27
2022-09-03T04:23:09.285Z,1.25
2022-09-03T04:24:12.079Z,1.55
2022-09-03T04:25:14.637Z,1.80
2022-09-03T04:26:23.069Z,1.50
2022-09-03T04:27:25.888Z,1.13
2022-09-03T04:28:28.730Z,1.45
2022-09-03T04:29:32.148Z,1.38
2022-09-03T04:30:37.179Z,1.75
2022-09-03T04:31:40.158Z,1.20
2022-09-03T04:32:54.964Z,1.58
2022-09-03T04:33:58.010Z,1.15
2022-09-03T04:35:00.550Z,1.08
2022-09-03T04:36:10.057Z,1.25
2022-09-03T04:37:12.661Z,1.42
2022-09-03T04:38:15.699Z,1.75
2022-09-03T04:39:18.409Z,1.13
2022-09-03T04:40:21.330Z,1.17
2022-09-03T04:41:26.622Z,2.15
2022-09-03T04:42:29.287Z,1.30
2022-09-03T04:43:32.424Z,1.30
2022-09-03T04:44:38.393Z,1.17
2022-09-03T04:45:41.031Z,1.38
2022-09-03T04:46:44.166Z,1.80
2022-09-03T04:47:59.780Z,1.50
2022-09-03T04:49:03.072Z,1.20
2022-09-03T04:50:06.617Z,1.92
2022-09-03T04:51:14.877Z,1.80
2022-09-03T04:52:17.512Z,1.45
2022-09-03T04:53:20.058Z,1.77
2022-09-03T04:54:22.685Z,2.10
2022-09-03T04:55:39.739Z,1.52
2022-09-03T04:56:42.395Z,1.90
2022-09-03T04:57:44.990Z,1.40
2022-09-03T04:58:49.315Z,1.63
2022-09-03T04:59:53.892Z,2.22
2022-09-03T05:00:56.635Z,1.70
2022-09-03T05:01:59.406Z,1.45
2022-09-03T05:03:03.070Z,2.00
2022-09-03T05:04:06.407Z,1.50
2022-09-03T05:05:09.019Z,1.40
2022-09-03T05:06:12.147Z,1.50
2022-09-03T05:07:14.847Z,1.30
2022-09-03T05:08:17.975Z,1.70
2022-09-03T05:09:20.583Z,1.40
2022-09-03T05:10:24.167Z,1.33
2022-09-03T05:13:03.151Z,1.63
2022-09-03T05:14:06.907Z,1.73
2022-09-03T05:15:10.116Z,1.70
2022-09-03T05:16:13.353Z,1.48
2022-09-03T05:17:16.339Z,1.45
2022-09-03T05:18:20.002Z,1.50
2022-09-03T05:19:23.094Z,2.03
2022-09-03T05:20:26.791Z,1.50
2022-09-03T05:21:30.148Z,1.90
2022-09-03T05:22:35.087Z,1.25
2022-09-03T05:23:42.645Z,1.70
2022-09-03T05:24:45.666Z,2.28
2022-09-03T05:25:58.426Z,1.48
2022-09-03T05:27:02.170Z,1.58
2022-09-03T05:28:05.464Z,1.70
2022-09-03T05:29:09.966Z,1.58
2022-09-03T05:30:13.929Z,1.63
2022-09-03T05:31:22.302Z,1.40
2022-09-03T05:32:28.101Z,1.80
2022-09-03T05:33:38.815Z,1.75
2022-09-03T05:34:41.737Z,1.63
2022-09-03T05:35:44.590Z,1.98
2022-09-03T05:36:49.950Z,1.90
2022-09-03T05:37:56.281Z,1.48
2022-09-03T05:38:59.909Z,1.77
2022-09-03T05:40:03.644Z,2.00
2022-09-03T05:41:10.328Z,1.65
2022-09-03T05:42:14.406Z,2.17
2022-09-03T05:43:17.367Z,2.17
2022-09-03T05:44:23.578Z,1.70
2022-09-03T05:45:27.072Z,1.55
2022-09-03T05:46:33.450Z,1.55
2022-09-03T05:47:40.218Z,2.05
2022-09-03T05:48:43.255Z,1.73
2022-09-03T05:49:46.374Z,1.65
2022-09-03T05:50:49.775Z,2.05
2022-09-03T05:51:52.716Z,1.40
2022-09-03T05:52:55.862Z,1.60
2022-09-03T05:53:59.576Z,1.70
2022-09-03T05:55:04.006Z,1.58
2022-09-03T05:56:13.944Z,1.67
2022-09-03T05:57:16.945Z,1.58
2022-09-03T05:58:19.843Z,1.10
2022-09-03T05:59:22.968Z,1.38
2022-09-03T06:00:26.869Z,1.30
2022-09-03T06:01:35.939Z,1.90
2022-09-03T06:02:39.090Z,1.40
2022-09-03T06:03:44.170Z,1.20
2022-09-03T06:04:47.245Z,1.48
2022-09-03T06:05:52.387Z,1.25
2022-09-03T06:06:56.581Z,1.50
2022-09-03T06:07:59.747Z,0.90
2022-09-03T06:09:07.703Z,1.27
2022-09-03T06:10:12.654Z,1.48
2022-09-03T06:11:15.518Z,0.95
2022-09-03T06:12:18.537Z,1.25
2022-09-03T06:13:21.482Z,1.20
2022-09-03T06:14:25.308Z,1.25
2022-09-03T06:15:28.441Z,1.27
2022-09-03T06:16:33.784Z,1.25
2022-09-03T06:17:38.833Z,1.20
2022-09-03T06:18:41.877Z,1.20
2022-09-03T06:19:44.890Z,1.00
2022-09-03T06:20:59.139Z,1.20
2022-09-03T06:22:02.413Z,1.30
2022-09-03T06:23:05.513Z,1.40
2022-09-03T06:24:13.877Z,1.20
2022-09-03T06:25:17.758Z,1.17
2022-09-03T06:26:21.309Z,1.13
2022-09-03T06:27:24.640Z,1.30
2022-09-03T06:28:27.697Z,1.05
2022-09-03T06:29:30.800Z,1.05
2022-09-03T06:30:33.744Z,1.00
2022-09-03T06:31:36.793Z,1.17
2022-09-03T06:32:52.838Z,1.20
2022-09-03T06:33:59.591Z,1.17
2022-09-03T06:35:06.085Z,0.90
2022-09-03T06:36:13.474Z,1.40
2022-09-03T06:37:16.502Z,1.00
2022-09-03T06:38:19.831Z,1.25
2022-09-03T06:39:22.979Z,1.30
2022-09-03T06:40:26.379Z,1.38
2022-09-03T06:41:33.148Z,1.13
2022-09-03T06:42:36.299Z,1.52
2022-09-03T06:43:43.306Z,1.55
2022-09-03T06:44:46.227Z,1.58
2022-09-03T06:46:08.072Z,1.58
2022-09-03T06:47:11.157Z,1.30
2022-09-03T06:48:14.481Z,1.60
2022-09-03T06:49:18.304Z,1.10
2022-09-03T06:50:22.044Z,1.02
2022-09-03T06:51:28.199Z,0.80
2022-09-03T06:52:31.312Z,1.27
2022-09-03T06:53:37.946Z,1.30
2022-09-03T06:54:41.017Z,1.20
2022-09-03T06:55:45.564Z,1.10
2022-09-03T06:56:48.456Z,1.20
2022-09-03T06:57:57.608Z,1.00
2022-09-03T06:59:11.855Z,0.95
2022-09-03T07:00:16.333Z,0.93
2022-09-03T07:01:25.896Z,0.88
2022-09-03T07:02:29.065Z,0.88
2022-09-03T07:03:32.991Z,1.02
2022-09-03T07:04:36.259Z,0.88
2022-09-03T07:05:39.820Z,1.30
2022-09-03T07:06:43.344Z,1.50
2022-09-03T07:07:46.567Z,1.20
2022-09-03T07:08:49.613Z,1.30
2022-09-03T07:09:52.586Z,1.13
2022-09-03T07:10:55.646Z,1.13
2022-09-03T07:11:58.867Z,0.88
2022-09-03T07:13:01.911Z,0.90
2022-09-03T07:14:06.062Z,0.90
2022-09-03T07:15:09.919Z,0.80
2022-09-03T07:16:17.708Z,1.05
2022-09-03T07:17:20.989Z,0.80
2022-09-03T07:18:24.236Z,1.05
2022-09-03T07:19:27.723Z,0.90
2022-09-03T07:20:30.675Z,0.98
2022-09-03T07:21:36.935Z,0.73
2022-09-03T07:22:40.130Z,0.73
2022-09-03T07:23:44.084Z,0.98
2022-09-03T07:24:47.745Z,0.95
2022-09-03T07:25:59.585Z,0.80
2022-09-03T07:27:02.550Z,0.73
2022-09-03T07:28:07.065Z,0.75
2022-09-03T07:29:11.646Z,0.88
2022-09-03T07:30:14.884Z,0.70
2022-09-03T07:31:26.060Z,0.95
2022-09-03T07:32:29.236Z,0.98
2022-09-03T07:33:33.921Z,0.68
2022-09-03T07:34:37.086Z,0.55
2022-09-03T07:35:40.230Z,0.80
2022-09-03T07:36:50.050Z,0.68
2022-09-03T07:37:55.336Z,0.80
2022-09-03T07:38:59.511Z,0.63
2022-09-03T07:40:03.498Z,0.75
2022-09-03T07:41:09.461Z,0.80
2022-09-03T07:42:12.693Z,0.70
2022-09-03T07:43:15.700Z,0.77
2022-09-03T07:44:25.203Z,0.90
2022-09-03T07:45:28.976Z,0.82
2022-09-03T07:46:35.645Z,0.93
2022-09-03T07:47:46.099Z,0.70
2022-09-03T07:48:54.639Z,0.73
2022-09-03T07:49:57.674Z,1.00
2022-09-03T07:51:01.604Z,0.80
2022-09-03T07:52:04.702Z,0.70
2022-09-03T07:53:09.406Z,0.85
2022-09-03T07:54:12.352Z,0.80
2022-09-03T07:55:15.553Z,0.52
2022-09-03T07:56:18.515Z,0.60
2022-09-03T07:57:21.525Z,0.60
2022-09-03T07:58:25.484Z,0.75
2022-09-03T07:59:28.895Z,0.90
2022-09-03T08:00:34.061Z,0.60
2022-09-03T08:01:38.475Z,0.68
2022-09-03T08:02:46.431Z,0.90
2022-09-03T08:03:53.355Z,0.60
2022-09-03T08:04:56.656Z,0.80
2022-09-03T08:06:08.458Z,0.90
2022-09-03T08:07:11.383Z,0.47
2022-09-03T08:08:15.566Z,0.80
2022-09-03T08:09:19.451Z,0.75
2022-09-03T08:10:22.801Z,0.80
2022-09-03T08:11:27.751Z,0.70
2022-09-03T08:12:32.908Z,0.80
2022-09-03T08:13:37.284Z,0.60
2022-09-03T08:14:40.385Z,0.73
2022-09-03T08:15:43.399Z,0.47
2022-09-03T08:16:50.748Z,0.80
2022-09-03T08:17:53.669Z,1.08
2022-09-03T08:19:03.107Z,0.32
2022-09-03T08:20:07.952Z,0.60
2022-09-03T08:21:15.568Z,0.60
2022-09-03T08:22:18.775Z,0.68
2022-09-03T08:23:21.766Z,0.70
2022-09-03T08:24:26.385Z,0.70
2022-09-03T08:25:30.148Z,0.70
2022-09-03T08:26:40.573Z,0.50
2022-09-03T08:27:43.554Z,0.55
2022-09-03T08:28:46.683Z,0.85
2022-09-03T08:29:49.636Z,0.80
2022-09-03T08:30:52.747Z,0.70
2022-09-03T08:31:55.779Z,0.70
2022-09-03T08:33:04.961Z,0.68
2022-09-03T08:34:08.723Z,0.47
2022-09-03T08:35:11.690Z,0.70
2022-09-03T08:36:22.832Z,0.82
2022-09-03T08:37:29.037Z,0.73
2022-09-03T08:38:33.897Z,0.63
2022-09-03T08:39:36.954Z,0.77
2022-09-03T08:40:40.164Z,0.90
2022-09-03T08:41:51.964Z,0.90
2022-09-03T08:43:17.584Z,0.70
2022-09-03T08:44:29.939Z,0.93
2022-09-03T08:45:38.270Z,0.70
2022-09-03T08:47:28.048Z,0.60
2022-09-03T08:48:33.206Z,0.70
2022-09-03T08:50:00.093Z,0.70
2022-09-03T08:51:07.577Z,0.47
2022-09-03T08:52:28.666Z,0.60
2022-09-03T08:53:55.273Z,0.55
2022-09-03T08:55:29.850Z,0.50
2022-09-03T08:56:38.274Z,0.63
2022-09-03T08:57:49.743Z,0.52
2022-09-03T08:58:52.887Z,0.70
2022-09-03T08:59:56.803Z,0.70
2022-09-03T09:01:13.217Z,0.68
2022-09-03T09:02:40.271Z,0.80
2022-09-03T09:04:07.495Z,0.73
2022-09-03T09:05:44.368Z,0.70
2022-09-03T09:07:35.030Z,0.90
2022-09-03T09:09:24.745Z,0.50
2022-09-03T09:10:42.222Z,0.52
2022-09-03T09:12:03.312Z,0.88
2022-09-03T09:13:57.672Z,0.68
2022-09-03T09:15:40.348Z,0.65
2022-09-03T09:16:48.468Z,0.63
2022-09-03T09:18:06.268Z,0.80
2022-09-03T09:19:14.664Z,0.60
2022-09-03T09:20:36.351Z,0.60
2022-09-03T09:22:03.318Z,0.70
2022-09-03T09:23:11.712Z,0.50
2022-09-03T09:24:24.236Z,0.60
2022-09-03T09:25:27.568Z,0.70
2022-09-03T09:26:31.544Z,0.57
2022-09-03T09:27:34.537Z,0.50
2022-09-03T09:28:39.074Z,0.60
2022-09-03T09:29:42.130Z,0.70
2022-09-03T09:30:48.924Z,0.60
2022-09-03T09:31:54.230Z,0.75
2022-09-03T09:32:57.615Z,0.63
2022-09-03T09:34:08.968Z,0.57
2022-09-03T09:35:12.401Z,0.70
2022-09-03T09:36:19.400Z,0.50
2022-09-03T09:37:22.613Z,0.70
2022-09-03T09:38:36.614Z,0.60
2022-09-03T09:39:41.792Z,0.60
2022-09-03T09:40:46.073Z,0.45
2022-09-03T09:41:58.954Z,0.77
2022-09-03T09:43:11.054Z,0.50
2022-09-03T09:44:21.446Z,0.70
2022-09-03T09:45:25.187Z,0.63
2022-09-03T09:46:38.851Z,0.80
2022-09-03T09:47:42.619Z,0.60
2022-09-03T09:48:57.092Z,0.60
2022-09-03T09:50:02.878Z,0.60
2022-09-03T09:51:11.993Z,0.60
2022-09-03T09:52:16.695Z,0.80
2022-09-03T09:53:21.730Z,0.65
2022-09-03T09:54:27.974Z,0.60
2022-09-03T09:55:32.433Z,0.73
2022-09-03T09:56:35.463Z,0.60
2022-09-03T09:57:40.400Z,0.55
2022-09-03T09:58:43.743Z,0.60
2022-09-03T09:59:47.105Z,0.70
2022-09-03T10:01:17.744Z,0.68
2022-09-03T10:02:29.090Z,0.70
2022-09-03T10:03:35.753Z,0.60
2022-09-03T10:04:39.606Z,0.90
2022-09-03T10:06:01.997Z,0.52
2022-09-03T10:07:19.773Z,0.85
2022-09-03T10:08:23.512Z,0.63
2022-09-03T10:09:31.623Z,0.75
2022-09-03T10:10:43.234Z,0.85
2022-09-03T10:12:14.468Z,0.57
2022-09-03T10:13:25.693Z,0.68
2022-09-03T10:14:41.301Z,0.55
2022-09-03T10:15:54.447Z,0.70
2022-09-03T10:17:16.834Z,0.65
2022-09-03T10:18:45.855Z,0.90
2022-09-03T10:20:30.010Z,0.85
2022-09-03T10:22:09.797Z,0.68
2022-09-03T10:23:28.416Z,0.55
2022-09-03T10:25:02.450Z,0.63
2022-09-03T10:26:15.249Z,0.70
2022-09-03T10:27:19.901Z,0.52
2022-09-03T10:28:27.635Z,0.55
2022-09-03T10:29:30.686Z,0.50
2022-09-03T10:30:56.716Z,0.95
2022-09-03T10:32:27.405Z,0.70
2022-09-03T10:34:11.514Z,0.60
2022-09-03T10:35:42.206Z,0.60
2022-09-03T10:37:19.783Z,0.57
2022-09-03T10:38:34.771Z,0.70
2022-09-03T10:39:58.994Z,0.55
2022-09-03T10:41:34.948Z,0.60
2022-09-03T10:43:08.673Z,0.70
2022-09-03T10:44:30.375Z,0.55
2022-09-03T10:46:03.330Z,0.45
2022-09-03T10:47:31.954Z,0.55
2022-09-03T10:48:58.874Z,0.50
2022-09-03T10:50:26.406Z,0.43
2022-09-03T10:51:43.325Z,0.40
2022-09-03T10:53:33.791Z,0.60
2022-09-03T10:54:43.475Z,0.50
2022-09-03T10:56:13.686Z,0.60
2022-09-03T10:58:13.020Z,0.45
2022-09-03T10:59:54.026Z,0.80
2022-09-03T11:01:35.378Z,0.50
2022-09-03T11:03:20.910Z,0.40
2022-09-03T11:04:44.459Z,0.40
2022-09-03T11:06:20.660Z,0.50
2022-09-03T11:07:35.555Z,0.47
2022-09-03T11:09:05.810Z,0.70
2022-09-03T11:10:30.658Z,0.80
2022-09-03T11:11:42.797Z,0.60
2022-09-03T11:13:26.445Z,0.55
2022-09-03T11:14:41.630Z,0.57
2022-09-03T11:16:01.289Z,0.70
2022-09-03T11:17:27.542Z,0.57
2022-09-03T11:18:38.667Z,0.50
2022-09-03T11:19:56.264Z,0.65
2022-09-03T11:21:07.645Z,0.50
2022-09-03T11:22:16.327Z,0.60
2022-09-03T11:23:26.912Z,0.50
2022-09-03T11:24:33.677Z,0.70
2022-09-03T11:25:47.808Z,0.47
2022-09-03T11:27:21.550Z,0.70
2022-09-03T11:28:59.130Z,0.70
2022-09-03T11:30:09.768Z,0.43
2022-09-03T11:31:32.813Z,0.50
2022-09-03T11:32:48.729Z,0.60
2022-09-03T11:34:31.887Z,0.52
2022-09-03T11:35:35.603Z,0.60
2022-09-03T11:36:41.792Z,0.60
2022-09-03T11:38:00.908Z,0.70
2022-09-03T11:39:21.929Z,0.68
2022-09-03T11:40:36.197Z,0.70
2022-09-03T11:41:40.101Z,0.88
2022-09-03T11:42:45.137Z,1.13
2022-09-03T11:43:48.691Z,1.02
2022-09-03T11:44:52.287Z,0.80
2022-09-03T11:46:12.454Z,0.77
2022-09-03T11:47:24.764Z,0.80
2022-09-03T11:48:43.708Z,0.60
2022-09-03T11:49:50.936Z,1.15
2022-09-03T11:50:55.649Z,0.80
2022-09-03T11:52:08.209Z,0.77
2022-09-03T11:53:35.968Z,1.00
2022-09-03T11:54:47.155Z,1.00
2022-09-03T11:55:55.977Z,0.60
2022-09-03T11:57:23.341Z,1.05
2022-09-03T11:58:43.004Z,1.05
2022-09-03T11:59:46.565Z,1.02
2022-09-03T12:00:53.237Z,1.00
2022-09-03T12:02:39.137Z,1.40
2022-09-03T12:03:52.017Z,0.70
2022-09-03T12:05:37.203Z,1.00
2022-09-03T12:07:43.250Z,1.08
2022-09-03T12:09:10.330Z,0.85
2022-09-03T12:10:26.448Z,1.02
2022-09-03T12:12:02.213Z,1.00
2022-09-03T12:13:43.341Z,1.00
2022-09-03T12:15:07.249Z,1.17
2022-09-03T12:16:29.224Z,1.17
2022-09-03T12:18:22.665Z,0.90
2022-09-03T12:19:52.544Z,1.00
2022-09-03T12:21:00.343Z,0.77
2022-09-03T12:22:04.302Z,0.88
2022-09-03T12:23:07.990Z,0.80
2022-09-03T12:24:13.699Z,0.63
2022-09-03T12:25:16.865Z,0.70
2022-09-03T12:26:24.731Z,1.02
2022-09-03T12:27:33.024Z,1.27
2022-09-03T12:28:43.898Z,1.00
2022-09-03T12:30:00.913Z,0.80
2022-09-03T12:31:28.156Z,1.02
2022-09-03T12:32:39.474Z,1.10
2022-09-03T12:33:42.875Z,0.95
2022-09-03T12:34:45.824Z,0.80
2022-09-03T12:36:02.082Z,1.00
2022-09-03T12:38:04.379Z,1.10
2022-09-03T12:39:07.925Z,0.82
2022-09-03T12:40:28.227Z,0.93
2022-09-03T12:41:32.951Z,0.82
2022-09-03T12:42:35.930Z,1.20
2022-09-03T12:43:39.622Z,0.82
2022-09-03T12:44:43.765Z,0.80
2022-09-03T12:46:10.504Z,0.80
2022-09-03T12:47:37.352Z,0.90
2022-09-03T12:50:27.588Z,1.10
2022-09-03T12:51:56.273Z,0.80
2022-09-03T12:53:02.890Z,0.80
2022-09-03T12:54:14.684Z,0.90
2022-09-03T12:56:06.376Z,0.93
2022-09-03T12:57:09.733Z,0.90
2022-09-03T12:58:48.047Z,0.90
2022-09-03T12:59:58.355Z,0.77
2022-09-03T13:01:13.216Z,1.00
2022-09-03T13:02:31.830Z,1.10
2022-09-03T13:03:57.921Z,1.10
2022-09-03T13:05:01.907Z,0.88
2022-09-03T13:06:14.005Z,1.02
2022-09-03T13:07:30.230Z,0.95
2022-09-03T13:08:47.955Z,0.90
2022-09-03T13:09:51.369Z,1.20
2022-09-03T13:11:00.042Z,1.10
2022-09-03T13:12:06.042Z,1.05
2022-09-03T13:13:30.091Z,1.48
2022-09-03T13:14:48.190Z,0.80
2022-09-03T13:16:39.600Z,2.35
2022-09-03T13:18:23.352Z,1.20
2022-09-03T13:19:49.322Z,1.05
2022-09-03T13:21:21.277Z,0.95
2022-09-03T13:23:02.470Z,1.40
2022-09-03T13:24:45.831Z,1.35
2022-09-03T13:26:14.832Z,1.13
2022-09-03T13:27:37.263Z,1.40
2022-09-03T13:29:40.279Z,0.98
2022-09-03T13:31:03.775Z,1.27
2022-09-03T13:32:33.653Z,1.20
2022-09-03T13:33:50.555Z,1.10
2022-09-03T13:35:04.754Z,1.33
2022-09-03T13:36:20.022Z,0.90
2022-09-03T13:37:49.557Z,0.98
2022-09-03T13:39:06.202Z,1.30
2022-09-03T13:40:31.619Z,1.10
2022-09-03T13:42:09.524Z,1.25
2022-09-03T13:43:45.536Z,1.27
2022-09-03T13:44:58.790Z,1.02
2022-09-03T13:46:25.896Z,0.93
2022-09-03T13:48:15.907Z,0.82
2022-09-03T13:50:09.721Z,1.13
2022-09-03T13:51:20.770Z,0.85
2022-09-03T13:52:42.946Z,0.57
2022-09-03T13:54:48.750Z,1.17
2022-09-03T13:56:05.260Z,1.05
2022-09-03T13:57:34.883Z,1.40
2022-09-03T13:58:43.279Z,0.80
2022-09-03T13:59:59.379Z,1.55
2022-09-03T14:01:41.809Z,1.13
2022-09-03T14:03:32.800Z,1.13
2022-09-03T14:05:41.356Z,1.17
2022-09-03T14:07:08.683Z,0.80
2022-09-03T14:09:05.005Z,1.27
2022-09-03T14:10:59.545Z,0.90
2022-09-03T14:12:23.884Z,1.17
2022-09-03T14:14:00.846Z,1.40
2022-09-03T14:15:14.454Z,1.38
2022-09-03T14:16:59.947Z,1.20
2022-09-03T14:18:51.955Z,1.08
2022-09-03T14:20:09.462Z,1.27
2022-09-03T14:21:34.392Z,1.23
2022-09-03T14:22:46.160Z,1.30
2022-09-03T14:23:59.457Z,1.10
2022-09-03T14:25:18.596Z,1.20
2022-09-03T14:26:39.817Z,1.33
2022-09-03T14:27:43.361Z,1.55
2022-09-03T14:29:12.491Z,1.10
2022-09-03T14:30:43.958Z,0.90
2022-09-03T14:32:17.301Z,1.20
2022-09-03T14:33:50.276Z,1.17
2022-09-03T14:35:17.646Z,0.85
2022-09-03T14:37:07.153Z,1.17
2022-09-03T14:38:46.793Z,1.25
2022-09-03T14:40:13.474Z,1.50
2022-09-03T14:41:38.384Z,1.20
2022-09-03T14:42:46.945Z,0.98
2022-09-03T14:44:27.777Z,1.10
2022-09-03T14:46:17.014Z,0.98
2022-09-03T14:47:51.863Z,1.15
2022-09-03T14:49:15.590Z,1.00
2022-09-03T14:50:40.294Z,1.25
2022-09-03T14:52:22.238Z,1.00
2022-09-03T14:54:14.678Z,1.00
2022-09-03T14:55:57.253Z,1.13
2022-09-03T14:57:27.110Z,0.68
2022-09-03T14:59:03.450Z,1.13
2022-09-03T15:00:34.817Z,1.00
2022-09-03T15:01:39.316Z,1.17
2022-09-03T15:03:14.431Z,1.15
2022-09-03T15:04:32.423Z,1.00
2022-09-03T15:06:18.400Z,0.82
2022-09-03T15:07:53.431Z,0.98
2022-09-03T15:09:19.994Z,1.20
2022-09-03T15:10:43.071Z,0.93
2022-09-03T15:12:13.382Z,1.05
2022-09-03T15:13:45.257Z,0.97
2022-09-03T15:14:58.986Z,1.25
2022-09-03T15:16:02.268Z,1.00
2022-09-03T15:17:26.804Z,0.80
2022-09-03T15:18:41.175Z,0.80
2022-09-03T15:20:11.284Z,0.80
2022-09-03T15:21:42.681Z,1.10
2022-09-03T15:22:58.202Z,1.20
2022-09-03T15:24:11.461Z,0.90
2022-09-03T15:25:39.516Z,1.10
2022-09-03T15:26:45.258Z,0.90
2022-09-03T15:28:21.682Z,0.75
2022-09-03T15:29:36.770Z,0.70
2022-09-03T15:31:02.595Z,0.80
2022-09-03T15:32:45.849Z,0.80
2022-09-03T15:34:07.396Z,1.02
2022-09-03T15:35:35.724Z,0.75
2022-09-03T15:36:53.836Z,1.15
2022-09-03T15:38:04.319Z,0.90
2022-09-03T15:39:23.551Z,0.98
2022-09-03T15:40:32.409Z,0.90
2022-09-03T15:41:54.960Z,0.90
2022-09-03T15:43:25.795Z,0.85
2022-09-03T15:46:10.828Z,0.77
2022-09-03T15:47:35.241Z,0.90
2022-09-03T15:49:02.968Z,0.82
2022-09-03T15:50:33.017Z,0.85
2022-09-03T15:52:11.696Z,1.17
2022-09-03T15:53:51.062Z,1.00
2022-09-03T15:55:08.095Z,0.82
2022-09-03T15:56:49.433Z,0.80
2022-09-03T15:58:22.581Z,0.82
2022-09-03T15:59:47.101Z,0.90
2022-09-03T16:01:32.475Z,0.80
2022-09-03T16:02:42.828Z,0.60
2022-09-03T16:04:25.594Z,0.55
2022-09-03T16:05:44.619Z,1.30
2022-09-03T16:06:58.176Z,0.88
2022-09-03T16:08:35.974Z,0.65
2022-09-03T16:10:24.704Z,0.77
2022-09-03T16:11:52.471Z,0.70
2022-09-03T16:13:14.830Z,1.15
2022-09-03T16:14:34.875Z,0.70
2022-09-03T16:15:48.295Z,0.70
2022-09-03T16:17:08.479Z,0.90
2022-09-03T16:18:30.978Z,0.75
2022-09-03T16:20:02.112Z,0.93
2022-09-03T16:21:09.295Z,0.82
2022-09-03T16:22:34.049Z,1.10
2022-09-03T16:23:46.044Z,0.90
2022-09-03T16:25:04.285Z,0.70
2022-09-03T16:26:43.961Z,0.88
2022-09-03T16:28:15.015Z,0.95